createdAt,value
2023-03-23T15:59:08.618Z,99882.56
2023-03-23T16:01:38.414Z,99883.00
2023-03-23T16:04:07.683Z,99891.72
2023-03-23T16:06:36.282Z,99886.38
2023-03-23T16:09:06.069Z,99879.50
2023-03-23T16:11:34.168Z,99870.13
2023-03-23T16:14:01.697Z,99876.69
2023-03-23T16:16:32.237Z,99873.94
2023-03-23T16:18:59.412Z,99872.00
2023-03-23T16:21:26.523Z,99860.97
2023-03-23T16:23:54.765Z,99864.91
2023-03-23T16:26:23.433Z,99879.56
2023-03-23T16:28:53.212Z,99871.63
2023-03-23T16:31:22.551Z,99862.97
2023-03-23T16:33:49.593Z,99881.09
2023-03-23T16:36:16.702Z,99877.06
2023-03-23T16:38:48.964Z,99851.47
2023-03-23T16:41:17.441Z,99861.44
2023-03-23T16:43:46.115Z,99851.97
2023-03-23T16:46:14.300Z,99841.59
2023-03-23T16:48:41.496Z,99831.66
2023-03-23T16:51:08.551Z,99832.81
2023-03-23T16:53:37.146Z,99830.44
2023-03-23T16:56:06.127Z,99820.59
2023-03-23T16:58:33.275Z,99824.38
2023-03-23T17:01:07.894Z,99815.00
2023-03-23T17:03:35.776Z,99819.47
2023-03-23T17:06:05.108Z,99808.59
2023-03-23T17:08:33.087Z,99801.34
2023-03-23T17:11:06.184Z,99810.53
2023-03-23T17:13:33.260Z,99809.38
2023-03-23T17:16:01.910Z,99801.59
2023-03-23T17:18:30.914Z,99797.72
2023-03-23T17:20:58.933Z,99804.63
2023-03-23T17:23:26.200Z,99802.03
2023-03-23T17:25:54.237Z,99785.66
2023-03-23T17:28:21.672Z,99787.44
2023-03-23T17:30:53.125Z,99780.75
2023-03-23T17:33:20.349Z,99777.16
2023-03-23T17:35:52.143Z,99775.63
2023-03-23T17:38:19.930Z,99790.91
2023-03-23T17:40:47.288Z,99790.69
2023-03-23T17:43:14.654Z,99794.81
2023-03-23T17:45:43.563Z,99799.47
2023-03-23T17:48:12.265Z,99791.72
2023-03-23T17:50:39.390Z,99791.66
2023-03-23T17:53:07.808Z,99785.56
2023-03-23T17:55:34.894Z,99783.56
2023-03-23T17:58:02.449Z,99784.28
2023-03-23T18:00:29.528Z,99787.09
2023-03-23T18:02:58.294Z,99784.94
2023-03-23T18:05:29.285Z,99793.91
2023-03-23T18:07:58.543Z,99782.22
2023-03-23T18:10:30.567Z,99779.84
2023-03-23T18:13:12.201Z,99783.47
2023-03-23T18:16:20.417Z,99781.94
2023-03-23T18:19:05.975Z,99778.34
2023-03-23T18:21:38.088Z,99777.59
2023-03-23T18:25:16.171Z,99777.22
2023-03-23T18:28:31.204Z,99775.63
2023-03-23T18:31:12.120Z,99765.16
2023-03-23T18:33:46.926Z,99767.97
2023-03-23T18:36:42.665Z,99761.09
2023-03-23T18:39:34.231Z,99755.06
2023-03-23T18:42:01.457Z,99757.06
2023-03-23T18:44:30.478Z,99746.56
2023-03-23T18:46:57.516Z,99743.41
2023-03-23T18:49:39.545Z,99736.97
2023-03-23T18:52:06.995Z,99722.81
2023-03-23T18:54:35.124Z,99730.88
2023-03-23T18:57:19.930Z,99729.31
2023-03-23T18:59:56.605Z,99720.78
2023-03-23T19:02:24.438Z,99715.63
2023-03-23T19:05:05.657Z,99715.63
2023-03-23T19:07:33.264Z,99721.28
2023-03-23T19:10:12.872Z,99717.28
2023-03-23T19:12:55.425Z,99708.94
2023-03-23T19:15:27.642Z,99684.75
2023-03-23T19:18:10.799Z,99700.47
2023-03-23T19:21:15.558Z,99697.63
2023-03-23T19:24:26.375Z,99701.28
2023-03-23T19:27:06.823Z,99692.81
2023-03-23T19:29:36.142Z,99696.47
2023-03-23T19:32:19.690Z,99699.25
2023-03-23T19:35:03.452Z,99693.63
2023-03-23T19:37:40.182Z,99681.97
2023-03-23T19:40:36.676Z,99689.94
2023-03-23T19:43:11.039Z,99689.59
2023-03-23T19:45:46.155Z,99692.47
2023-03-23T19:48:17.606Z,99676.78
2023-03-23T19:50:58.176Z,99677.59
2023-03-23T19:53:27.245Z,99665.97
2023-03-23T19:55:59.911Z,99668.38
2023-03-23T19:58:39.738Z,99659.47
2023-03-23T20:01:19.438Z,99669.91
2023-03-23T20:03:53.535Z,99665.41
2023-03-23T20:06:41.106Z,99659.00
2023-03-23T20:09:41.264Z,99660.66
2023-03-23T20:12:14.645Z,99652.56
2023-03-23T20:14:47.921Z,99655.38
2023-03-23T20:17:58.080Z,99647.84
2023-03-23T20:20:29.724Z,99640.13
2023-03-23T20:23:19.254Z,99636.19
2023-03-23T20:25:47.124Z,99638.56
2023-03-23T20:28:15.085Z,99634.53
2023-03-23T20:31:16.814Z,99630.94
2023-03-23T20:34:21.850Z,99633.00
2023-03-23T20:36:50.621Z,99612.84
2023-03-23T20:39:54.893Z,99612.44
2023-03-23T20:42:22.453Z,99610.88
2023-03-23T20:44:58.402Z,99612.47
2023-03-23T20:47:25.908Z,99606.03
2023-03-23T20:50:02.508Z,99598.84
2023-03-23T20:52:33.906Z,99601.63
2023-03-23T20:55:01.122Z,99608.03
2023-03-23T20:57:28.933Z,99600.41
2023-03-23T20:59:56.321Z,99600.38
2023-03-23T21:02:26.090Z,99582.34
2023-03-23T21:04:54.139Z,99587.13
2023-03-23T21:07:23.333Z,99585.97
2023-03-23T21:09:51.852Z,99583.13
2023-03-23T21:12:18.801Z,99577.13
2023-03-23T21:14:46.221Z,99561.78
2023-03-23T21:17:13.251Z,99567.06
2023-03-23T21:19:40.881Z,99563.78
2023-03-23T21:22:09.764Z,99573.81
2023-03-23T21:24:40.434Z,99551.31
2023-03-23T21:27:08.903Z,99554.16
2023-03-23T21:29:35.958Z,99559.75
2023-03-23T21:32:08.302Z,99556.97
2023-03-23T21:34:36.873Z,99556.88
2023-03-23T21:37:04.085Z,99558.84
2023-03-23T21:39:31.684Z,99552.91
2023-03-23T21:41:59.769Z,99560.41
2023-03-23T21:44:28.212Z,99538.81
2023-03-23T21:46:55.317Z,99550.78
2023-03-23T21:49:22.431Z,99533.53
2023-03-23T21:51:50.152Z,99530.66
2023-03-23T21:54:17.678Z,99529.91
2023-03-23T21:56:44.767Z,99539.56
2023-03-23T21:59:12.043Z,99525.41
2023-03-23T22:01:40.667Z,99535.81
2023-03-23T22:04:08.401Z,99524.50
2023-03-23T22:06:35.931Z,99523.94
2023-03-23T22:09:05.625Z,99520.63
2023-03-23T22:11:33.427Z,99507.69
2023-03-23T22:14:01.105Z,99502.19
2023-03-23T22:16:28.597Z,99498.19
2023-03-23T22:19:00.231Z,99500.91
2023-03-23T22:21:28.463Z,99509.63
2023-03-23T22:23:57.605Z,99490.97
2023-03-23T22:26:27.310Z,99485.69
2023-03-23T22:28:54.852Z,99489.63
2023-03-23T22:31:24.328Z,99475.31
2023-03-23T22:33:55.072Z,99473.31
2023-03-23T22:36:25.018Z,99470.00
2023-03-23T22:38:52.244Z,99456.69
2023-03-23T22:41:22.524Z,99449.56
2023-03-23T22:43:50.013Z,99448.00
2023-03-23T22:46:18.114Z,99447.59
2023-03-23T22:48:45.432Z,99446.69
2023-03-23T22:51:15.174Z,99439.50
2023-03-23T22:53:44.741Z,99436.22
2023-03-23T22:56:12.501Z,99428.16
2023-03-23T22:58:40.306Z,99433.78
2023-03-23T23:01:09.615Z,99417.28
2023-03-23T23:03:38.125Z,99420.75
2023-03-23T23:06:06.167Z,99422.53
2023-03-23T23:08:33.520Z,99396.34
2023-03-23T23:11:03.867Z,99399.47
2023-03-23T23:13:33.092Z,99398.59
2023-03-23T23:16:01.602Z,99384.97
2023-03-23T23:18:30.919Z,99388.63
2023-03-23T23:21:00.062Z,99391.28
2023-03-23T23:23:28.493Z,99394.91
2023-03-23T23:25:57.306Z,99392.13
2023-03-23T23:28:26.733Z,99383.16
2023-03-23T23:30:54.862Z,99383.47
2023-03-23T23:33:22.619Z,99380.56
2023-03-23T23:35:50.183Z,99369.47
2023-03-23T23:38:17.355Z,99370.16
2023-03-23T23:40:46.354Z,99367.88
2023-03-23T23:43:14.893Z,99352.97
2023-03-23T23:45:43.830Z,99380.09
2023-03-23T23:48:12.651Z,99375.53
2023-03-23T23:50:39.866Z,99354.41
2023-03-23T23:53:10.010Z,99358.50
2023-03-23T23:55:38.731Z,99365.94
2023-03-23T23:58:06.091Z,99363.56
